sensor_id;sensor_type;location;lat;lon;timestamp;P1;durP1;ratioP1;P2;durP2;ratioP2
13566;SDS011;6855;48.112;11.298;2023-02-15T00:01:25;69.67;;;11.93;;
13566;SDS011;6855;48.112;11.298;2023-02-15T00:03:53;54.53;;;11.00;;
13566;SDS011;6855;48.112;11.298;2023-02-15T00:06:20;40.17;;;9.80;;
13566;SDS011;6855;48.112;11.298;2023-02-15T00:08:47;23.27;;;9.20;;
13566;SDS011;6855;48.112;11.298;2023-02-15T00:11:16;57.07;;;11.00;;
13566;SDS011;6855;48.112;11.298;2023-02-15T00:14:04;35.83;;;9.07;;
13566;SDS011;6855;48.112;11.298;2023-02-15T00:16:31;20.93;;;9.53;;
13566;SDS011;6855;48.112;11.298;2023-02-15T00:18:59;62.73;;;10.83;;
13566;SDS011;6855;48.112;11.298;2023-02-15T00:21:27;40.83;;;10.33;;
13566;SDS011;6855;48.112;11.298;2023-02-15T00:23:54;49.00;;;10.10;;
13566;SDS011;6855;48.112;11.298;2023-02-15T00:26:23;52.67;;;10.50;;
13566;SDS011;6855;48.112;11.298;2023-02-15T00:28:51;53.80;;;8.93;;
13566;SDS011;6855;48.112;11.298;2023-02-15T00:31:19;40.93;;;9.73;;
13566;SDS011;6855;48.112;11.298;2023-02-15T00:33:46;35.37;;;8.77;;
13566;SDS011;6855;48.112;11.298;2023-02-15T00:36:13;45.70;;;10.00;;
13566;SDS011;6855;48.112;11.298;2023-02-15T00:38:41;39.50;;;9.33;;
13566;SDS011;6855;48.112;11.298;2023-02-15T00:41:08;48.57;;;10.40;;
13566;SDS011;6855;48.112;11.298;2023-02-15T00:43:37;34.03;;;8.50;;
13566;SDS011;6855;48.112;11.298;2023-02-15T00:46:04;32.83;;;9.10;;
13566;SDS011;6855;48.112;11.298;2023-02-15T00:48:32;22.10;;;9.40;;
13566;SDS011;6855;48.112;11.298;2023-02-15T00:50:59;32.70;;;9.50;;
13566;SDS011;6855;48.112;11.298;2023-02-15T00:53:27;56.27;;;9.20;;
13566;SDS011;6855;48.112;11.298;2023-02-15T00:55:55;41.90;;;9.40;;
13566;SDS011;6855;48.112;11.298;2023-02-15T00:58:22;39.57;;;9.67;;
13566;SDS011;6855;48.112;11.298;2023-02-15T01:00:51;18.83;;;7.73;;
13566;SDS011;6855;48.112;11.298;2023-02-15T01:03:19;31.73;;;12.83;;
13566;SDS011;6855;48.112;11.298;2023-02-15T01:05:47;38.00;;;9.70;;
13566;SDS011;6855;48.112;11.298;2023-02-15T01:08:15;50.10;;;9.50;;
13566;SDS011;6855;48.112;11.298;2023-02-15T01:10:42;32.80;;;9.37;;
13566;SDS011;6855;48.112;11.298;2023-02-15T01:13:12;41.33;;;9.03;;
13566;SDS011;6855;48.112;11.298;2023-02-15T01:15:39;66.80;;;10.57;;
13566;SDS011;6855;48.112;11.298;2023-02-15T01:18:08;29.33;;;8.20;;
13566;SDS011;6855;48.112;11.298;2023-02-15T01:20:35;63.00;;;9.83;;
13566;SDS011;6855;48.112;11.298;2023-02-15T01:23:04;36.53;;;9.50;;
13566;SDS011;6855;48.112;11.298;2023-02-15T01:25:32;64.67;;;10.23;;
13566;SDS011;6855;48.112;11.298;2023-02-15T01:27:59;26.27;;;9.37;;
13566;SDS011;6855;48.112;11.298;2023-02-15T01:30:26;19.80;;;9.30;;
13566;SDS011;6855;48.112;11.298;2023-02-15T01:32:54;33.53;;;8.90;;
13566;SDS011;6855;48.112;11.298;2023-02-15T01:35:22;16.70;;;8.37;;
13566;SDS011;6855;48.112;11.298;2023-02-15T01:37:49;35.23;;;8.80;;
13566;SDS011;6855;48.112;11.298;2023-02-15T01:40:17;18.17;;;8.40;;
13566;SDS011;6855;48.112;11.298;2023-02-15T01:42:44;64.27;;;8.67;;
13566;SDS011;6855;48.112;11.298;2023-02-15T01:45:16;34.67;;;9.63;;
13566;SDS011;6855;48.112;11.298;2023-02-15T01:47:47;105.57;;;10.33;;
13566;SDS011;6855;48.112;11.298;2023-02-15T01:50:17;58.57;;;8.80;;
13566;SDS011;6855;48.112;11.298;2023-02-15T01:52:48;22.37;;;8.30;;
13566;SDS011;6855;48.112;11.298;2023-02-15T01:55:15;36.37;;;8.53;;
13566;SDS011;6855;48.112;11.298;2023-02-15T01:57:43;66.17;;;8.63;;
13566;SDS011;6855;48.112;11.298;2023-02-15T02:00:12;31.43;;;8.10;;
13566;SDS011;6855;48.112;11.298;2023-02-15T02:02:41;35.67;;;8.83;;
13566;SDS011;6855;48.112;11.298;2023-02-15T02:05:10;36.70;;;8.57;;
13566;SDS011;6855;48.112;11.298;2023-02-15T02:07:38;31.57;;;7.80;;
13566;SDS011;6855;48.112;11.298;2023-02-15T02:10:09;44.77;;;9.80;;
13566;SDS011;6855;48.112;11.298;2023-02-15T02:12:36;29.47;;;8.50;;
13566;SDS011;6855;48.112;11.298;2023-02-15T02:15:04;29.93;;;9.73;;
13566;SDS011;6855;48.112;11.298;2023-02-15T02:17:33;118.27;;;10.80;;
13566;SDS011;6855;48.112;11.298;2023-02-15T02:20:16;26.53;;;7.60;;
13566;SDS011;6855;48.112;11.298;2023-02-15T02:22:56;54.83;;;7.67;;
13566;SDS011;6855;48.112;11.298;2023-02-15T02:25:55;31.77;;;8.70;;
13566;SDS011;6855;48.112;11.298;2023-02-15T02:28:32;45.50;;;8.10;;
13566;SDS011;6855;48.112;11.298;2023-02-15T02:31:14;41.50;;;7.70;;
13566;SDS011;6855;48.112;11.298;2023-02-15T02:33:50;23.97;;;8.10;;
13566;SDS011;6855;48.112;11.298;2023-02-15T02:36:22;50.17;;;8.40;;
13566;SDS011;6855;48.112;11.298;2023-02-15T02:41:36;33.97;;;8.07;;
13566;SDS011;6855;48.112;11.298;2023-02-15T02:44:07;40.47;;;8.70;;
13566;SDS011;6855;48.112;11.298;2023-02-15T02:46:38;52.87;;;7.83;;
13566;SDS011;6855;48.112;11.298;2023-02-15T02:49:08;73.23;;;8.53;;
13566;SDS011;6855;48.112;11.298;2023-02-15T02:51:35;24.70;;;6.67;;
13566;SDS011;6855;48.112;11.298;2023-02-15T02:54:04;11.87;;;7.43;;
13566;SDS011;6855;48.112;11.298;2023-02-15T02:56:33;35.53;;;8.20;;
13566;SDS011;6855;48.112;11.298;2023-02-15T02:59:04;89.43;;;8.87;;
13566;SDS011;6855;48.112;11.298;2023-02-15T03:01:35;65.70;;;8.53;;
13566;SDS011;6855;48.112;11.298;2023-02-15T03:04:03;54.60;;;11.10;;
13566;SDS011;6855;48.112;11.298;2023-02-15T03:06:36;39.93;;;8.60;;
13566;SDS011;6855;48.112;11.298;2023-02-15T03:09:06;31.60;;;7.87;;
13566;SDS011;6855;48.112;11.298;2023-02-15T03:11:40;62.10;;;8.80;;
13566;SDS011;6855;48.112;11.298;2023-02-15T03:14:07;25.70;;;7.70;;
13566;SDS011;6855;48.112;11.298;2023-02-15T03:16:35;18.87;;;7.40;;
13566;SDS011;6855;48.112;11.298;2023-02-15T03:19:05;20.40;;;7.80;;
13566;SDS011;6855;48.112;11.298;2023-02-15T03:21:35;32.20;;;7.80;;
13566;SDS011;6855;48.112;11.298;2023-02-15T03:24:07;61.63;;;9.00;;
13566;SDS011;6855;48.112;11.298;2023-02-15T03:26:35;47.03;;;7.43;;
13566;SDS011;6855;48.112;11.298;2023-02-15T03:29:03;26.37;;;8.80;;
13566;SDS011;6855;48.112;11.298;2023-02-15T03:31:33;45.47;;;8.07;;
13566;SDS011;6855;48.112;11.298;2023-02-15T03:34:02;44.17;;;7.70;;
13566;SDS011;6855;48.112;11.298;2023-02-15T03:36:31;13.73;;;7.47;;
13566;SDS011;6855;48.112;11.298;2023-02-15T03:39:04;29.00;;;8.40;;
13566;SDS011;6855;48.112;11.298;2023-02-15T03:41:36;58.13;;;8.37;;
13566;SDS011;6855;48.112;11.298;2023-02-15T03:44:06;32.10;;;7.10;;
13566;SDS011;6855;48.112;11.298;2023-02-15T03:46:35;20.70;;;7.60;;
13566;SDS011;6855;48.112;11.298;2023-02-15T03:49:07;51.93;;;8.30;;
13566;SDS011;6855;48.112;11.298;2023-02-15T03:51:36;39.47;;;7.80;;
13566;SDS011;6855;48.112;11.298;2023-02-15T03:54:07;52.90;;;8.50;;
13566;SDS011;6855;48.112;11.298;2023-02-15T03:56:35;20.63;;;7.27;;
13566;SDS011;6855;48.112;11.298;2023-02-15T03:59:02;50.03;;;8.90;;
13566;SDS011;6855;48.112;11.298;2023-02-15T04:01:50;37.13;;;7.60;;
13566;SDS011;6855;48.112;11.298;2023-02-15T04:04:27;21.10;;;7.80;;
13566;SDS011;6855;48.112;11.298;2023-02-15T04:06:55;21.10;;;7.50;;
13566;SDS011;6855;48.112;11.298;2023-02-15T04:09:23;20.27;;;8.00;;
13566;SDS011;6855;48.112;11.298;2023-02-15T04:12:08;38.63;;;8.70;;
13566;SDS011;6855;48.112;11.298;2023-02-15T04:14:35;34.07;;;7.57;;
13566;SDS011;6855;48.112;11.298;2023-02-15T04:17:20;17.17;;;7.17;;
13566;SDS011;6855;48.112;11.298;2023-02-15T04:19:47;39.57;;;7.77;;
13566;SDS011;6855;48.112;11.298;2023-02-15T04:22:32;28.60;;;7.83;;
13566;SDS011;6855;48.112;11.298;2023-02-15T04:25:18;13.47;;;7.30;;
13566;SDS011;6855;48.112;11.298;2023-02-15T04:27:46;14.60;;;7.00;;
13566;SDS011;6855;48.112;11.298;2023-02-15T04:30:14;15.30;;;7.30;;
13566;SDS011;6855;48.112;11.298;2023-02-15T04:32:42;24.37;;;7.63;;
13566;SDS011;6855;48.112;11.298;2023-02-15T04:35:09;25.73;;;6.77;;
13566;SDS011;6855;48.112;11.298;2023-02-15T04:37:37;38.90;;;8.63;;
13566;SDS011;6855;48.112;11.298;2023-02-15T04:40:05;19.67;;;7.20;;
13566;SDS011;6855;48.112;11.298;2023-02-15T04:42:33;44.63;;;7.70;;
13566;SDS011;6855;48.112;11.298;2023-02-15T04:45:01;19.20;;;8.00;;
13566;SDS011;6855;48.112;11.298;2023-02-15T04:47:28;21.63;;;7.27;;
13566;SDS011;6855;48.112;11.298;2023-02-15T04:49:55;31.00;;;9.20;;
13566;SDS011;6855;48.112;11.298;2023-02-15T04:52:23;11.90;;;7.60;;
13566;SDS011;6855;48.112;11.298;2023-02-15T04:54:50;19.07;;;7.40;;
13566;SDS011;6855;48.112;11.298;2023-02-15T04:57:17;22.30;;;7.40;;
13566;SDS011;6855;48.112;11.298;2023-02-15T04:59:45;30.43;;;7.87;;
13566;SDS011;6855;48.112;11.298;2023-02-15T05:02:13;15.10;;;7.80;;
13566;SDS011;6855;48.112;11.298;2023-02-15T05:04:40;23.93;;;7.63;;
13566;SDS011;6855;48.112;11.298;2023-02-15T05:07:07;16.63;;;7.17;;
13566;SDS011;6855;48.112;11.298;2023-02-15T05:09:34;18.43;;;7.70;;
13566;SDS011;6855;48.112;11.298;2023-02-15T05:12:01;27.10;;;7.57;;
13566;SDS011;6855;48.112;11.298;2023-02-15T05:14:29;30.23;;;8.07;;
13566;SDS011;6855;48.112;11.298;2023-02-15T05:16:57;22.70;;;7.00;;
13566;SDS011;6855;48.112;11.298;2023-02-15T05:19:26;27.60;;;8.13;;
13566;SDS011;6855;48.112;11.298;2023-02-15T05:21:53;21.20;;;7.47;;
13566;SDS011;6855;48.112;11.298;2023-02-15T05:24:20;20.00;;;7.77;;
13566;SDS011;6855;48.112;11.298;2023-02-15T05:27:05;12.90;;;7.13;;
13566;SDS011;6855;48.112;11.298;2023-02-15T05:29:50;18.43;;;6.70;;
13566;SDS011;6855;48.112;11.298;2023-02-15T05:32:18;25.80;;;6.70;;
13566;SDS011;6855;48.112;11.298;2023-02-15T05:34:45;19.07;;;7.60;;
13566;SDS011;6855;48.112;11.298;2023-02-15T05:37:13;18.83;;;7.73;;
13566;SDS011;6855;48.112;11.298;2023-02-15T05:39:40;30.70;;;8.23;;
13566;SDS011;6855;48.112;11.298;2023-02-15T05:42:07;26.40;;;8.63;;
13566;SDS011;6855;48.112;11.298;2023-02-15T05:44:34;17.67;;;7.33;;
13566;SDS011;6855;48.112;11.298;2023-02-15T05:47:01;24.83;;;8.70;;
13566;SDS011;6855;48.112;11.298;2023-02-15T05:49:30;10.80;;;6.77;;
13566;SDS011;6855;48.112;11.298;2023-02-15T05:51:58;21.13;;;7.57;;
13566;SDS011;6855;48.112;11.298;2023-02-15T05:54:25;10.30;;;6.50;;
13566;SDS011;6855;48.112;11.298;2023-02-15T05:56:52;33.77;;;6.50;;
13566;SDS011;6855;48.112;11.298;2023-02-15T05:59:19;18.43;;;6.97;;
13566;SDS011;6855;48.112;11.298;2023-02-15T06:01:46;19.33;;;7.00;;
13566;SDS011;6855;48.112;11.298;2023-02-15T06:04:13;17.30;;;6.93;;
13566;SDS011;6855;48.112;11.298;2023-02-15T06:06:42;12.95;;;6.72;;
13566;SDS011;6855;48.112;11.298;2023-02-15T06:09:09;12.00;;;7.78;;
13566;SDS011;6855;48.112;11.298;2023-02-15T06:11:37;13.03;;;6.90;;
13566;SDS011;6855;48.112;11.298;2023-02-15T06:14:04;25.47;;;7.27;;
13566;SDS011;6855;48.112;11.298;2023-02-15T06:16:31;9.50;;;6.10;;
13566;SDS011;6855;48.112;11.298;2023-02-15T06:18:58;9.73;;;6.23;;
13566;SDS011;6855;48.112;11.298;2023-02-15T06:21:27;19.70;;;6.67;;
13566;SDS011;6855;48.112;11.298;2023-02-15T06:23:55;19.43;;;6.20;;
13566;SDS011;6855;48.112;11.298;2023-02-15T06:26:23;14.35;;;7.07;;
13566;SDS011;6855;48.112;11.298;2023-02-15T06:28:50;14.03;;;6.80;;
13566;SDS011;6855;48.112;11.298;2023-02-15T06:31:17;16.07;;;7.00;;
13566;SDS011;6855;48.112;11.298;2023-02-15T06:33:44;9.60;;;6.00;;
13566;SDS011;6855;48.112;11.298;2023-02-15T06:36:12;10.50;;;6.25;;
13566;SDS011;6855;48.112;11.298;2023-02-15T06:38:39;18.27;;;7.38;;
13566;SDS011;6855;48.112;11.298;2023-02-15T06:41:07;11.70;;;7.05;;
13566;SDS011;6855;48.112;11.298;2023-02-15T06:43:35;13.20;;;7.43;;
13566;SDS011;6855;48.112;11.298;2023-02-15T06:46:02;11.98;;;7.75;;
13566;SDS011;6855;48.112;11.298;2023-02-15T06:48:29;14.60;;;7.88;;
13566;SDS011;6855;48.112;11.298;2023-02-15T06:50:56;14.30;;;8.15;;
13566;SDS011;6855;48.112;11.298;2023-02-15T06:53:23;11.70;;;6.87;;
13566;SDS011;6855;48.112;11.298;2023-02-15T06:55:51;11.85;;;6.75;;
13566;SDS011;6855;48.112;11.298;2023-02-15T06:58:19;12.23;;;7.50;;
13566;SDS011;6855;48.112;11.298;2023-02-15T07:00:46;11.52;;;6.18;;
13566;SDS011;6855;48.112;11.298;2023-02-15T07:03:14;11.13;;;6.45;;
13566;SDS011;6855;48.112;11.298;2023-02-15T07:05:41;8.23;;;5.55;;
13566;SDS011;6855;48.112;11.298;2023-02-15T07:08:09;10.70;;;6.40;;
13566;SDS011;6855;48.112;11.298;2023-02-15T07:10:36;10.50;;;6.00;;
13566;SDS011;6855;48.112;11.298;2023-02-15T07:13:03;12.32;;;6.50;;
13566;SDS011;6855;48.112;11.298;2023-02-15T07:15:31;13.17;;;7.30;;
13566;SDS011;6855;48.112;11.298;2023-02-15T07:17:58;10.15;;;5.80;;
13566;SDS011;6855;48.112;11.298;2023-02-15T07:20:25;13.60;;;7.20;;
13566;SDS011;6855;48.112;11.298;2023-02-15T07:22:53;16.87;;;7.90;;
13566;SDS011;6855;48.112;11.298;2023-02-15T07:25:20;13.43;;;8.00;;
13566;SDS011;6855;48.112;11.298;2023-02-15T07:27:47;15.30;;;7.78;;
13566;SDS011;6855;48.112;11.298;2023-02-15T07:30:15;11.33;;;7.30;;
13566;SDS011;6855;48.112;11.298;2023-02-15T07:32:44;12.50;;;6.60;;
13566;SDS011;6855;48.112;11.298;2023-02-15T07:35:29;9.03;;;6.03;;
13566;SDS011;6855;48.112;11.298;2023-02-15T07:37:57;13.15;;;6.35;;
13566;SDS011;6855;48.112;11.298;2023-02-15T07:40:24;8.70;;;6.67;;
13566;SDS011;6855;48.112;11.298;2023-02-15T07:42:51;12.63;;;7.03;;
13566;SDS011;6855;48.112;11.298;2023-02-15T07:45:19;9.67;;;6.03;;
13566;SDS011;6855;48.112;11.298;2023-02-15T07:47:48;8.10;;;5.80;;
13566;SDS011;6855;48.112;11.298;2023-02-15T07:50:15;12.57;;;6.90;;
13566;SDS011;6855;48.112;11.298;2023-02-15T07:52:42;11.00;;;7.13;;
13566;SDS011;6855;48.112;11.298;2023-02-15T07:55:09;9.60;;;6.40;;
13566;SDS011;6855;48.112;11.298;2023-02-15T07:57:41;10.90;;;6.70;;
13566;SDS011;6855;48.112;11.298;2023-02-15T08:00:08;8.90;;;6.03;;
13566;SDS011;6855;48.112;11.298;2023-02-15T08:02:36;10.50;;;6.57;;
13566;SDS011;6855;48.112;11.298;2023-02-15T08:05:05;8.40;;;5.60;;
13566;SDS011;6855;48.112;11.298;2023-02-15T08:07:32;14.53;;;5.60;;
13566;SDS011;6855;48.112;11.298;2023-02-15T08:09:59;9.17;;;5.80;;
13566;SDS011;6855;48.112;11.298;2023-02-15T08:12:27;10.40;;;6.10;;
13566;SDS011;6855;48.112;11.298;2023-02-15T08:14:54;8.20;;;4.77;;
13566;SDS011;6855;48.112;11.298;2023-02-15T08:17:21;8.43;;;5.97;;
13566;SDS011;6855;48.112;11.298;2023-02-15T08:19:48;8.10;;;6.07;;
13566;SDS011;6855;48.112;11.298;2023-02-15T08:22:17;9.70;;;5.97;;
13566;SDS011;6855;48.112;11.298;2023-02-15T08:24:44;7.87;;;5.50;;
13566;SDS011;6855;48.112;11.298;2023-02-15T08:27:11;8.50;;;6.03;;
13566;SDS011;6855;48.112;11.298;2023-02-15T08:29:38;7.67;;;5.47;;
13566;SDS011;6855;48.112;11.298;2023-02-15T08:32:08;5.90;;;5.30;;
13566;SDS011;6855;48.112;11.298;2023-02-15T08:34:36;6.10;;;5.17;;
13566;SDS011;6855;48.112;11.298;2023-02-15T08:37:03;7.50;;;5.10;;
13566;SDS011;6855;48.112;11.298;2023-02-15T08:39:32;5.37;;;4.73;;
13566;SDS011;6855;48.112;11.298;2023-02-15T08:42:02;5.80;;;4.97;;
13566;SDS011;6855;48.112;11.298;2023-02-15T08:44:29;6.97;;;5.43;;
13566;SDS011;6855;48.112;11.298;2023-02-15T08:46:56;6.50;;;5.20;;
13566;SDS011;6855;48.112;11.298;2023-02-15T08:49:27;6.20;;;5.60;;
13566;SDS011;6855;48.112;11.298;2023-02-15T08:51:54;7.47;;;5.07;;
13566;SDS011;6855;48.112;11.298;2023-02-15T08:54:22;5.67;;;5.10;;
13566;SDS011;6855;48.112;11.298;2023-02-15T08:56:50;6.83;;;5.30;;
13566;SDS011;6855;48.112;11.298;2023-02-15T08:59:18;5.90;;;4.60;;
13566;SDS011;6855;48.112;11.298;2023-02-15T09:01:46;6.43;;;5.80;;
13566;SDS011;6855;48.112;11.298;2023-02-15T09:04:14;7.80;;;6.13;;
13566;SDS011;6855;48.112;11.298;2023-02-15T09:06:41;9.57;;;5.23;;
13566;SDS011;6855;48.112;11.298;2023-02-15T09:09:09;6.27;;;5.53;;
13566;SDS011;6855;48.112;11.298;2023-02-15T09:11:37;5.63;;;5.13;;
13566;SDS011;6855;48.112;11.298;2023-02-15T09:14:08;5.63;;;5.00;;
13566;SDS011;6855;48.112;11.298;2023-02-15T09:16:36;8.53;;;5.80;;
13566;SDS011;6855;48.112;11.298;2023-02-15T09:19:04;7.33;;;6.57;;
13566;SDS011;6855;48.112;11.298;2023-02-15T09:21:32;7.50;;;5.97;;
13566;SDS011;6855;48.112;11.298;2023-02-15T09:24:00;8.90;;;6.60;;
13566;SDS011;6855;48.112;11.298;2023-02-15T09:26:28;7.23;;;5.90;;
13566;SDS011;6855;48.112;11.298;2023-02-15T09:28:56;6.73;;;5.70;;
13566;SDS011;6855;48.112;11.298;2023-02-15T09:31:25;14.03;;;6.10;;
13566;SDS011;6855;48.112;11.298;2023-02-15T09:33:53;7.60;;;6.50;;
13566;SDS011;6855;48.112;11.298;2023-02-15T09:36:21;9.73;;;7.40;;
13566;SDS011;6855;48.112;11.298;2023-02-15T09:38:52;8.67;;;7.77;;
13566;SDS011;6855;48.112;11.298;2023-02-15T09:41:24;8.10;;;7.03;;
13566;SDS011;6855;48.112;11.298;2023-02-15T09:43:59;9.30;;;6.53;;
13566;SDS011;6855;48.112;11.298;2023-02-15T09:46:35;9.33;;;7.17;;
13566;SDS011;6855;48.112;11.298;2023-02-15T09:49:07;11.80;;;6.97;;
13566;SDS011;6855;48.112;11.298;2023-02-15T09:51:40;8.40;;;7.20;;
13566;SDS011;6855;48.112;11.298;2023-02-15T09:54:23;9.33;;;7.13;;
13566;SDS011;6855;48.112;11.298;2023-02-15T09:56:52;10.40;;;8.43;;
13566;SDS011;6855;48.112;11.298;2023-02-15T09:59:26;9.90;;;7.47;;
13566;SDS011;6855;48.112;11.298;2023-02-15T10:01:58;8.83;;;6.80;;
13566;SDS011;6855;48.112;11.298;2023-02-15T10:04:33;8.93;;;7.40;;
13566;SDS011;6855;48.112;11.298;2023-02-15T10:07:04;7.50;;;6.10;;
13566;SDS011;6855;48.112;11.298;2023-02-15T10:09:44;9.73;;;6.90;;
13566;SDS011;6855;48.112;11.298;2023-02-15T10:12:20;8.37;;;6.33;;
13566;SDS011;6855;48.112;11.298;2023-02-15T10:14:55;10.77;;;6.97;;
13566;SDS011;6855;48.112;11.298;2023-02-15T10:17:31;8.27;;;6.90;;
13566;SDS011;6855;48.112;11.298;2023-02-15T10:20:06;7.47;;;6.47;;
13566;SDS011;6855;48.112;11.298;2023-02-15T10:22:38;8.80;;;6.50;;
13566;SDS011;6855;48.112;11.298;2023-02-15T10:25:11;9.13;;;6.83;;
13566;SDS011;6855;48.112;11.298;2023-02-15T10:27:44;8.30;;;6.90;;
13566;SDS011;6855;48.112;11.298;2023-02-15T10:30:13;7.40;;;6.40;;
13566;SDS011;6855;48.112;11.298;2023-02-15T10:32:42;8.80;;;7.07;;
13566;SDS011;6855;48.112;11.298;2023-02-15T10:35:16;9.97;;;7.50;;
13566;SDS011;6855;48.112;11.298;2023-02-15T10:37:49;9.33;;;7.13;;
13566;SDS011;6855;48.112;11.298;2023-02-15T10:40:22;10.90;;;7.80;;
13566;SDS011;6855;48.112;11.298;2023-02-15T10:42:56;12.17;;;8.57;;
13566;SDS011;6855;48.112;11.298;2023-02-15T10:45:27;9.33;;;7.43;;
13566;SDS011;6855;48.112;11.298;2023-02-15T10:48:17;9.83;;;7.80;;
13566;SDS011;6855;48.112;11.298;2023-02-15T10:50:49;10.13;;;7.87;;
13566;SDS011;6855;48.112;11.298;2023-02-15T10:56:11;9.57;;;7.90;;
13566;SDS011;6855;48.112;11.298;2023-02-15T10:58:43;11.57;;;8.53;;
13566;SDS011;6855;48.112;11.298;2023-02-15T11:01:15;11.17;;;8.47;;
13566;SDS011;6855;48.112;11.298;2023-02-15T11:06:36;10.70;;;8.70;;
13566;SDS011;6855;48.112;11.298;2023-02-15T11:09:04;11.17;;;8.23;;
13566;SDS011;6855;48.112;11.298;2023-02-15T11:11:35;11.00;;;7.77;;
13566;SDS011;6855;48.112;11.298;2023-02-15T11:14:08;9.73;;;8.00;;
13566;SDS011;6855;48.112;11.298;2023-02-15T11:16:37;11.43;;;8.93;;
13566;SDS011;6855;48.112;11.298;2023-02-15T11:19:06;10.77;;;8.30;;
13566;SDS011;6855;48.112;11.298;2023-02-15T11:21:37;12.07;;;8.50;;
13566;SDS011;6855;48.112;11.298;2023-02-15T11:24:08;13.20;;;10.10;;
13566;SDS011;6855;48.112;11.298;2023-02-15T11:26:37;15.47;;;8.57;;
13566;SDS011;6855;48.112;11.298;2023-02-15T11:29:07;12.77;;;8.47;;
13566;SDS011;6855;48.112;11.298;2023-02-15T11:31:40;11.10;;;8.27;;
13566;SDS011;6855;48.112;11.298;2023-02-15T11:34:11;12.07;;;9.10;;
13566;SDS011;6855;48.112;11.298;2023-02-15T11:36:41;13.90;;;9.13;;
13566;SDS011;6855;48.112;11.298;2023-02-15T11:39:10;11.10;;;8.43;;
13566;SDS011;6855;48.112;11.298;2023-02-15T11:41:39;12.57;;;8.70;;
13566;SDS011;6855;48.112;11.298;2023-02-15T11:44:10;11.93;;;9.00;;
13566;SDS011;6855;48.112;11.298;2023-02-15T11:46:38;12.00;;;8.83;;
13566;SDS011;6855;48.112;11.298;2023-02-15T11:49:08;11.17;;;8.90;;
13566;SDS011;6855;48.112;11.298;2023-02-15T11:51:45;10.73;;;7.80;;
13566;SDS011;6855;48.112;11.298;2023-02-15T11:54:12;10.93;;;8.10;;
13566;SDS011;6855;48.112;11.298;2023-02-15T11:56:39;10.07;;;7.83;;
13566;SDS011;6855;48.112;11.298;2023-02-15T11:59:09;11.43;;;8.80;;
13566;SDS011;6855;48.112;11.298;2023-02-15T12:01:37;12.13;;;8.27;;
13566;SDS011;6855;48.112;11.298;2023-02-15T12:04:08;12.33;;;8.60;;
13566;SDS011;6855;48.112;11.298;2023-02-15T12:06:38;11.30;;;8.20;;
13566;SDS011;6855;48.112;11.298;2023-02-15T12:09:12;14.87;;;9.10;;
13566;SDS011;6855;48.112;11.298;2023-02-15T12:11:42;12.10;;;9.37;;
13566;SDS011;6855;48.112;11.298;2023-02-15T12:14:10;12.20;;;9.33;;
13566;SDS011;6855;48.112;11.298;2023-02-15T12:16:41;11.07;;;8.37;;
13566;SDS011;6855;48.112;11.298;2023-02-15T12:19:13;10.57;;;8.57;;
13566;SDS011;6855;48.112;11.298;2023-02-15T12:21:49;13.17;;;8.50;;
13566;SDS011;6855;48.112;11.298;2023-02-15T12:24:18;12.53;;;8.67;;
13566;SDS011;6855;48.112;11.298;2023-02-15T12:26:46;14.33;;;9.17;;
13566;SDS011;6855;48.112;11.298;2023-02-15T12:29:23;13.20;;;8.77;;
13566;SDS011;6855;48.112;11.298;2023-02-15T12:31:53;10.20;;;9.17;;
13566;SDS011;6855;48.112;11.298;2023-02-15T12:34:22;9.20;;;8.20;;
13566;SDS011;6855;48.112;11.298;2023-02-15T12:36:50;9.67;;;8.77;;
13566;SDS011;6855;48.112;11.298;2023-02-15T12:39:21;11.23;;;9.30;;
13566;SDS011;6855;48.112;11.298;2023-02-15T12:42:01;10.60;;;9.47;;
13566;SDS011;6855;48.112;11.298;2023-02-15T12:44:30;12.80;;;10.00;;
13566;SDS011;6855;48.112;11.298;2023-02-15T12:46:58;11.03;;;9.33;;
13566;SDS011;6855;48.112;11.298;2023-02-15T12:49:26;12.43;;;9.67;;
13566;SDS011;6855;48.112;11.298;2023-02-15T12:51:54;12.77;;;10.33;;
13566;SDS011;6855;48.112;11.298;2023-02-15T12:54:36;9.93;;;8.90;;
13566;SDS011;6855;48.112;11.298;2023-02-15T12:57:17;14.50;;;10.20;;
13566;SDS011;6855;48.112;11.298;2023-02-15T12:59:50;18.83;;;10.00;;
13566;SDS011;6855;48.112;11.298;2023-02-15T13:02:20;10.87;;;9.00;;
13566;SDS011;6855;48.112;11.298;2023-02-15T13:04:48;14.43;;;10.60;;
13566;SDS011;6855;48.112;11.298;2023-02-15T13:07:16;11.90;;;9.30;;
13566;SDS011;6855;48.112;11.298;2023-02-15T13:09:45;17.40;;;9.77;;
13566;SDS011;6855;48.112;11.298;2023-02-15T13:12:16;10.07;;;8.83;;
13566;SDS011;6855;48.112;11.298;2023-02-15T13:14:44;13.07;;;10.30;;
13566;SDS011;6855;48.112;11.298;2023-02-15T13:17:12;10.53;;;9.43;;
13566;SDS011;6855;48.112;11.298;2023-02-15T13:19:41;11.03;;;9.83;;
13566;SDS011;6855;48.112;11.298;2023-02-15T13:22:10;11.20;;;9.37;;
13566;SDS011;6855;48.112;11.298;2023-02-15T13:24:40;11.90;;;9.70;;
13566;SDS011;6855;48.112;11.298;2023-02-15T13:27:10;12.60;;;10.70;;
13566;SDS011;6855;48.112;11.298;2023-02-15T13:29:39;13.53;;;10.90;;
13566;SDS011;6855;48.112;11.298;2023-02-15T13:32:10;18.27;;;11.97;;
13566;SDS011;6855;48.112;11.298;2023-02-15T13:34:39;14.50;;;10.23;;
13566;SDS011;6855;48.112;11.298;2023-02-15T13:37:08;12.40;;;11.10;;
13566;SDS011;6855;48.112;11.298;2023-02-15T13:39:40;14.33;;;10.63;;
13566;SDS011;6855;48.112;11.298;2023-02-15T13:42:16;15.13;;;11.70;;
13566;SDS011;6855;48.112;11.298;2023-02-15T13:44:54;14.93;;;10.80;;
13566;SDS011;6855;48.112;11.298;2023-02-15T13:47:27;14.73;;;11.00;;
13566;SDS011;6855;48.112;11.298;2023-02-15T13:50:00;13.77;;;11.90;;
13566;SDS011;6855;48.112;11.298;2023-02-15T13:52:30;14.93;;;11.00;;
13566;SDS011;6855;48.112;11.298;2023-02-15T13:55:14;14.07;;;11.80;;
13566;SDS011;6855;48.112;11.298;2023-02-15T13:57:53;14.57;;;11.07;;
13566;SDS011;6855;48.112;11.298;2023-02-15T14:00:26;14.90;;;10.63;;
13566;SDS011;6855;48.112;11.298;2023-02-15T14:02:59;18.43;;;11.70;;
13566;SDS011;6855;48.112;11.298;2023-02-15T14:05:34;15.73;;;12.00;;
13566;SDS011;6855;48.112;11.298;2023-02-15T14:08:10;16.90;;;11.70;;
13566;SDS011;6855;48.112;11.298;2023-02-15T14:10:42;14.80;;;11.50;;
13566;SDS011;6855;48.112;11.298;2023-02-15T14:13:23;14.73;;;11.17;;
13566;SDS011;6855;48.112;11.298;2023-02-15T14:15:55;17.30;;;12.07;;
13566;SDS011;6855;48.112;11.298;2023-02-15T14:18:25;13.93;;;11.20;;
13566;SDS011;6855;48.112;11.298;2023-02-15T14:20:57;14.30;;;11.37;;
13566;SDS011;6855;48.112;11.298;2023-02-15T14:23:30;18.80;;;12.00;;
13566;SDS011;6855;48.112;11.298;2023-02-15T14:26:02;17.50;;;12.67;;
13566;SDS011;6855;48.112;11.298;2023-02-15T14:28:34;16.67;;;12.60;;
13566;SDS011;6855;48.112;11.298;2023-02-15T14:31:04;17.40;;;12.30;;
13566;SDS011;6855;48.112;11.298;2023-02-15T14:33:32;17.07;;;12.57;;
13566;SDS011;6855;48.112;11.298;2023-02-15T14:36:01;16.23;;;12.40;;
13566;SDS011;6855;48.112;11.298;2023-02-15T14:38:36;16.93;;;13.13;;
13566;SDS011;6855;48.112;11.298;2023-02-15T14:41:06;16.93;;;12.90;;
13566;SDS011;6855;48.112;11.298;2023-02-15T14:43:47;18.67;;;12.80;;
13566;SDS011;6855;48.112;11.298;2023-02-15T14:46:17;20.27;;;13.27;;
13566;SDS011;6855;48.112;11.298;2023-02-15T14:48:47;19.03;;;13.43;;
13566;SDS011;6855;48.112;11.298;2023-02-15T14:54:01;19.17;;;13.23;;
13566;SDS011;6855;48.112;11.298;2023-02-15T14:56:28;19.00;;;14.10;;
13566;SDS011;6855;48.112;11.298;2023-02-15T14:59:15;16.37;;;12.70;;
13566;SDS011;6855;48.112;11.298;2023-02-15T15:01:51;17.67;;;13.07;;
13566;SDS011;6855;48.112;11.298;2023-02-15T15:04:23;17.13;;;12.13;;